Warm Springs Summit, Nevada Weather observations

Data are for observation ending at time listed.
 Day   Time    Ave.   Ave.  Ave.  Vector   Max.   Stn.    Total    Solar   Ave.  
  of    of     Air    Rel.  Wind   Wind    Wind   Baro.  Precip.   Rad.    Soil  
Year   Day     Temp.  Hum.  Speed  Dir.    Gust   Pres.                    Temp. 
2015   (PST)    F      %     mph   deg.    mph     mb.     in.     W/m2     F   
------------------------------------------------------------------------------
  63   10:50   25.8    48    5.6    27      8.6   772.6    0.00     780    35.8
  63   11:00   26.8    51    4.3    54      6.3   772.7    0.00     793    35.8
  63   11:10   27.9    50    3.8    58      8.4   772.6    0.00     802    35.8
  63   11:20   28.0    55    5.9    74      9.3   772.6    0.00     810    35.8
  63   11:30   27.1    55    6.3    69     10.1   772.7    0.00     817    35.8
  63   11:40   27.3    58    6.5    90      9.7   772.8    0.00     821    35.8
  63   11:50   27.8    56    5.3    57      8.2   772.8    0.00     823    35.8
  63   12:00   27.7    55    5.8    43      7.7   772.8    0.00     823    35.8
  63   12:10   28.3    56    4.8    60      8.3   772.8    0.00     822    35.8
  63   12:20   29.2    57    4.8    80      7.9   772.8    0.00     818    35.8
  63   12:30   29.4    57    4.5   104      8.7   772.8    0.00     812    35.8
  63   12:40   31.1    55    4.6   130      8.2   772.7    0.00     806    35.8
  63   12:50   31.9    54    5.4   132     10.1   772.8    0.00     798    35.7
  63   13:00   31.9    56    5.3    95      9.2   772.8    0.00     788    35.7
  63   13:10   31.4    56    5.9   102     10.5   772.7    0.00     777    35.7
  63   13:20   31.4    54    5.2   106      9.5   772.8    0.00     757    35.7
  63   13:30   31.4    53    5.1   103      9.8   772.8    0.00     747    35.7
  63   13:40   31.8    53    5.7   104      8.3   772.8    0.00     729    35.7
  63   13:50   31.8    53    6.2   116     10.1   772.8    0.00     712    35.7
  63   14:00   32.2    51    4.8   106      8.4   772.9    0.00     688    35.7
  63   14:10   32.7    48    5.3   103      8.0   773.0    0.00     636    35.7
  63   14:20   33.2    44    5.0   110      7.6   773.0    0.00     638    35.7
  63   14:30   33.2    44    4.9    82      7.3   773.1    0.00     619    35.7
  63   14:40   33.7    42    4.2    62      6.3   773.1    0.00     596    35.7
  63   14:50   33.8    42    4.7    65      7.2   773.2    0.00     566    35.7
  63   15:00   33.5    39    5.8    74      7.9   773.2    0.00     543    35.7
  63   15:10   33.8    41    6.5    79      8.3   773.3    0.00     512    35.7
  63   15:20   33.7    40    6.2    82      8.4   773.3    0.00     471    35.7
  63   15:30   33.6    39    5.3    70      6.8   773.3    0.00     432    35.7
  63   15:40   33.7    42    5.4    90      7.5   773.4    0.00     382    35.7
  63   15:50   33.4    41    5.8    76      7.6   773.5    0.00     305    35.7
  63   16:00   32.8    40    5.3    58      6.4   773.5    0.00     276    35.7
  63   16:10   32.3    40    5.1    51      6.3   773.5    0.00     187    35.7
  63   16:20   32.7    37    4.1    37      5.2   773.6    0.00     240    35.7
  63   16:30   33.5    34    3.3    37      5.4   773.7    0.00     209    35.7
  63   16:40   34.5    29    3.3    64      4.3   773.7    0.00     189    35.7
  63   16:50   33.9    37    4.5    58      5.6   773.7    0.00     159    35.7
  63   17:00   32.5    40    4.3    44      5.4   773.8    0.00      97    35.7
  63   17:10   33.4    30    4.6    71      6.3   773.9    0.00      78    35.7
  63   17:20   32.5    34    5.8    50      6.8   774.0    0.00      38    35.7
  63   17:30   31.8    40    6.0    41      6.9   774.1    0.00      20    35.7
  63   17:40   31.5    43    6.7    40      7.6   774.1    0.00       7    35.7
  63   17:50   31.1    45    7.0    34      9.0   774.2    0.00       3    35.7
  63   18:00   30.6    48    7.0    31      9.3   774.3    0.00       0    35.7
  63   18:10   30.5    49    6.7    27      7.4   774.4    0.00       0    35.7
  63   18:20   30.7    50    5.9    26      6.3   774.4    0.00       0    35.7
  63   18:30   30.6    51    5.9    34      6.5   774.6    0.00       0    35.7
  63   18:40   30.6    51    5.9    30      6.5   774.8    0.00       0    35.7
  63   18:50   31.0    47    5.6    28      6.0   774.8    0.00       0    35.8
  63   19:00   30.7    50    6.4    23      7.3   774.9    0.00       0    35.8
  63   19:10   30.3    52    5.9    26      6.9   775.0    0.00       0    35.8
  63   19:20   31.4    49    5.0    38      5.6   775.1    0.00       0    35.8
  63   19:30   31.7    49    5.4    42      6.3   775.1    0.00       0    35.8
  63   19:40   31.1    50    5.0    28      6.5   775.2    0.00       0    35.8
  63   19:50   31.2    51    4.8    27      6.6   775.3    0.00       0    35.8
  63   20:00   31.2    51    4.8    32      6.5   775.4    0.00       0    35.8
  63   20:10   31.0    50    5.4    26      6.2   775.5    0.00       0    35.8
  63   20:20   30.9    51    5.2    24      5.8   775.6    0.00       0    35.8
  63   20:30   31.2    51    5.3    47      6.3   775.6    0.00       0    35.8
  63   20:40   31.2    52    6.1    58      7.9   775.7    0.00       0    35.8
  63   20:50   31.0    54    7.3    59      8.4   775.8    0.00       0    35.8
  63   21:00   30.6    54    6.4    54      7.9   776.0    0.00       0    35.8
  63   21:10   30.8    53    7.1    61      8.7   776.1    0.00       0    35.8
  63   21:20   30.6    54    7.0    56      8.3   776.2    0.00       0    35.8
  63   21:30   30.2    56    6.9    51      8.6   776.2    0.00       0    35.8
  63   21:40   30.3    54    6.6    51      8.1   776.2    0.00       0    35.8
  63   21:50   30.0    53    6.7    53      7.9   776.4    0.00       0    35.8
  63   22:00   29.6    53    6.9    56      7.9   776.5    0.00       0    35.8
  63   22:10   29.5    52    7.1    57      7.9   776.5    0.00       0    35.8
  63   22:20   29.6    52    6.6    53      8.2   776.5    0.00       0    35.8
  63   22:30   29.8    51    7.3    61      8.2   776.5    0.00       0    35.8
  63   22:40   29.8    51    6.5    59      7.3   776.4    0.00       0    35.8
  63   22:50   30.0    51    6.2    76      6.8   776.4    0.00       0    35.8
  63   23:00   29.7    50    6.0    80      6.8   776.4    0.00       0    35.8
  63   23:10   30.2    52    6.1    62      6.8   776.5    0.00       0    35.8
  63   23:20   30.3    54    6.4    55      7.0   776.5    0.00       0    35.8
  63   23:30   30.0    50    5.9    53      6.6   776.5    0.00       0    35.8
  63   23:40   30.0    51    5.6    51      6.0   776.5    0.00       0    35.8
  63   23:50   29.8    50    5.0    51      5.5   776.5    0.00       0    35.8
  64    0:00   29.6    51    5.5    43      6.9   776.5    0.00       0    35.8
  64    0:10   28.9    53    5.7    34      6.7   776.6    0.00       0    35.8
  64    0:20   29.6    55    4.7    43      5.1   776.6    0.00       0    35.8
  64    0:30   29.8    53    5.2    50      5.8   776.6    0.00       0    35.8
  64    0:40   29.3    52    5.5    49      6.8   776.6    0.00       0    35.8
  64    0:50   28.7    52    6.4    45      7.7   776.8    0.00       0    35.8
  64    1:00   28.7    52    6.6    51      7.9   776.8    0.00       0    35.8
  64    1:10   28.5    53    6.6    57      7.3   776.8    0.00       0    35.8
  64    1:20   28.5    55    6.8    54      8.2   776.8    0.00       0    35.8
  64    1:30   28.2    56    6.1    48      7.7   776.8    0.00       0    35.8
  64    1:40   28.6    54    6.2    62      7.1   776.8    0.00       0    35.8
  64    1:50   28.7    54    6.2    54      6.8   776.8    0.00       0    35.8
  64    2:00   28.6    55    5.5    48      6.5   776.8    0.00       0    35.8
  64    2:10   28.9    53    5.0    47      5.8   776.8    0.00       0    35.8
  64    2:20   28.8    54    5.0    38      5.9   776.8    0.00       0    35.8
  64    2:30   29.5    50    3.6    56      4.6   776.7    0.00       0    35.8
  64    2:40   29.9    49    4.0    61      5.5   776.7    0.00       0    35.8
  64    2:50   29.5    52    3.8    49      5.3   776.7    0.00       0    35.8
  64    3:00   30.0    48    3.9    60      4.8   776.7    0.00       0    35.8
  64    3:10   29.9    47    3.0    55      4.6   776.7    0.00       0    35.8
  64    3:20   29.9    48    3.6    60      5.4   776.7    0.00       0    35.8
  64    3:30   29.8    48    3.4    68      4.3   776.7    0.00       0    35.8
  64    3:40   29.1    53    3.3    35      3.8   776.7    0.00       0    35.8
  64    3:50   28.5    54    3.5    29      4.9   776.8    0.00       0    35.8
  64    4:00   29.2    50    3.5    85      4.4   776.9    0.00       0    35.8
  64    4:10   29.4    51    3.6    70      4.8   776.9    0.00       0    35.8
  64    4:20   29.2    50    3.7    71      4.4   776.9    0.00       0    35.8
  64    4:30   29.5    46    3.6    90      4.5   777.0    0.00       0    35.8
  64    4:40   29.6    46    4.6    82      6.0   777.1    0.00       0    35.8
  64    4:50   28.9    53    4.4    43      6.0   777.2    0.00       0    35.8
  64    5:00   27.5    53    4.8    22      6.0   777.3    0.00       0    35.8
  64    5:10   27.8    56    4.8    24      5.5   777.3    0.00       0    35.7
  64    5:20   28.7    52    3.9    49      4.9   777.4    0.00       0    35.7
  64    5:30   29.3    48    4.4    65      5.5   777.5    0.00       0    35.7
  64    5:40   29.1    49    4.6    66      5.7   777.4    0.00       0    35.7
  64    5:50   28.3    55    4.8    40      6.0   777.5    0.00       0    35.7
  64    6:00   27.3    56    6.0    34      7.1   777.6    0.00       1    35.7
  64    6:10   26.7    57    6.2    29      7.3   777.7    0.00       4    35.7
  64    6:20   27.0    56    6.2    31      7.6   777.7    0.00      11    35.7
  64    6:30   27.7    55    6.3    36      7.3   777.8    0.00      30    35.7
  64    6:40   28.4    54    5.9    42      7.2   777.9    0.00      60    35.7
  64    6:50   29.0    54    6.0    42      7.1   778.1    0.00      98    35.7
  64    7:00   29.4    54    6.2    42      7.9   778.2    0.00     141    35.7
  64    7:10   29.3    54    6.6    39      9.2   778.3    0.00     176    35.6
  64    7:20   29.4    54    6.2    32      7.9   778.4    0.00     210    35.6
  64    7:30   30.0    53    5.8    33      7.1   778.5    0.00     244    35.6
  64    7:40   30.7    53    5.1    29      7.2   778.6    0.00     279    35.6
  64    7:50   31.9    50    3.4    29      4.9   778.7    0.00     315    35.6
  64    8:00   34.2    36    3.7    87      4.9   778.8    0.00     350    35.6
  64    8:10   35.1    36    4.0    73      6.0   778.9    0.00     385    35.6
  64    8:20   35.2    39    3.7    84      5.5   779.1    0.00     418    35.6
  64    8:30   35.7    38    4.0   106      6.1   779.2    0.00     452    35.6
  64    8:40   35.9    41    3.3   102      5.2   779.3    0.00     484    35.5
  64    8:50   36.1    43    3.7    60      5.0   779.3    0.00     516    35.5
  64    9:00   35.7    39    3.9   100      6.1   779.3    0.00     546    35.5
  64    9:10   35.6    40    4.4    92      6.6   779.3    0.00     575    35.5
  64    9:20   36.0    37    4.0    75      6.0   779.4    0.00     603    35.5
  64    9:30   36.5    35    3.5    83      5.2   779.3    0.00     629    35.5
  64    9:40   36.8    36    3.5    63      5.2   779.4    0.00     654    35.5
  64    9:50   36.7    37    3.2    58      4.7   779.4    0.00     677    35.5
  64   10:00   37.3    35    3.0    31      4.8   779.5    0.00     699    35.5
  64   10:10   38.3    35    2.3   352      4.1   779.5    0.00     719    35.5
  64   10:20   40.3    39    2.5   128      6.5   779.5    0.00     737    35.5
  64   10:30   42.4    33    1.8    79      5.8   779.4    0.00     755    35.5
  64   10:40   41.3    38    3.2   149      6.5   779.4    0.00     770    35.5

Return to Warm Springs Summit, Nevada graphs page.


Western Regional Climate Center,wrcc@dri.edu